createdAt,value
2022-10-31T00:00:37.529Z,9.710982
2022-10-31T00:01:38.449Z,9.712025
2022-10-31T00:02:37.522Z,9.711555
2022-10-31T00:03:37.425Z,9.711359
2022-10-31T00:04:37.423Z,9.711477
2022-10-31T00:05:37.406Z,9.711597
2022-10-31T00:06:37.412Z,9.711792
2022-10-31T00:07:37.389Z,9.711906
2022-10-31T00:08:37.386Z,9.711716
2022-10-31T00:09:37.388Z,9.711491
2022-10-31T00:10:37.367Z,9.711679
2022-10-31T00:11:37.370Z,9.711958
2022-10-31T00:12:37.350Z,9.711807
2022-10-31T00:13:37.348Z,9.711722
2022-10-31T00:14:37.342Z,9.711783
2022-10-31T00:15:37.335Z,9.711694
2022-10-31T00:16:37.335Z,9.711443
2022-10-31T00:17:37.318Z,9.711599
2022-10-31T00:18:37.303Z,9.711551
2022-10-31T00:19:37.342Z,9.711480
2022-10-31T00:20:37.290Z,9.711200
2022-10-31T00:21:37.284Z,9.711370
2022-10-31T00:22:37.320Z,9.711383
2022-10-31T00:23:37.262Z,9.711246
2022-10-31T00:24:37.268Z,9.711462
2022-10-31T00:25:37.248Z,9.711637
2022-10-31T00:26:37.241Z,9.711642
2022-10-31T00:27:37.270Z,9.711858
2022-10-31T00:33:38.014Z,9.711137
2022-10-31T00:34:38.019Z,9.710327
2022-10-31T00:35:38.008Z,9.710294
2022-10-31T00:36:37.995Z,9.710294
2022-10-31T00:37:37.992Z,9.710294
2022-10-31T00:38:37.979Z,9.710294
2022-10-31T00:39:37.986Z,9.710294
2022-10-31T00:40:37.985Z,9.711465
2022-10-31T00:41:37.951Z,9.711563
2022-10-31T00:42:37.956Z,9.711512
2022-10-31T00:43:37.937Z,9.711565
2022-10-31T00:44:37.933Z,9.711562
2022-10-31T00:45:37.921Z,9.711530
2022-10-31T00:46:37.915Z,9.711540
2022-10-31T00:47:37.929Z,9.711473
2022-10-31T00:48:37.896Z,9.711476
2022-10-31T00:49:37.901Z,9.711452
2022-10-31T00:50:37.882Z,9.711631
2022-10-31T00:51:37.874Z,9.711660
2022-10-31T00:52:37.861Z,9.711516
2022-10-31T00:53:37.871Z,9.711373
2022-10-31T00:54:37.858Z,9.711493
2022-10-31T00:55:37.838Z,9.711433
2022-10-31T00:56:37.828Z,9.711470
2022-10-31T00:57:37.833Z,9.711496
2022-10-31T00:58:37.826Z,9.711329
2022-10-31T00:59:37.836Z,9.711338
2022-10-31T01:00:37.804Z,9.711300
2022-10-31T01:01:37.921Z,9.711357
2022-10-31T01:02:37.993Z,9.711465
2022-10-31T01:03:37.777Z,9.711489
2022-10-31T01:04:37.766Z,9.711503
2022-10-31T01:05:37.762Z,9.711441
2022-10-31T01:06:37.749Z,9.711590
2022-10-31T01:07:37.740Z,9.711583
2022-10-31T01:08:37.741Z,9.711616
2022-10-31T01:09:37.719Z,9.711636
2022-10-31T01:10:37.740Z,9.711637
2022-10-31T01:11:37.709Z,9.711651
2022-10-31T01:12:37.699Z,9.711644
2022-10-31T01:13:37.795Z,9.711623
2022-10-31T01:14:37.681Z,9.711644
2022-10-31T01:15:37.679Z,9.711671
2022-10-31T01:16:37.665Z,9.711660
2022-10-31T01:17:37.672Z,9.711671
2022-10-31T01:18:37.654Z,9.711598
2022-10-31T01:19:37.654Z,9.711609
2022-10-31T01:20:37.633Z,9.711702
2022-10-31T01:21:37.623Z,9.711618
2022-10-31T01:22:37.622Z,9.711631
2022-10-31T01:23:37.624Z,9.711608
2022-10-31T01:24:37.601Z,9.711670
2022-10-31T01:25:37.602Z,9.711650
2022-10-31T01:26:37.603Z,9.711642
2022-10-31T01:27:37.577Z,9.711748
2022-10-31T01:28:37.582Z,9.711745
2022-10-31T01:29:37.568Z,9.711723
2022-10-31T01:30:37.557Z,9.711787
2022-10-31T01:31:37.553Z,9.711702
2022-10-31T01:32:37.544Z,9.711682
2022-10-31T01:33:37.542Z,9.711672
2022-10-31T01:34:37.531Z,9.711698
2022-10-31T01:35:37.518Z,9.711669
2022-10-31T01:36:37.511Z,9.711637
2022-10-31T01:37:37.500Z,9.711681
2022-10-31T01:38:37.496Z,9.711623
2022-10-31T01:39:37.490Z,9.711635
2022-10-31T01:40:37.478Z,9.711667
2022-10-31T01:41:37.470Z,9.711659
2022-10-31T01:42:37.461Z,9.711621
2022-10-31T01:43:38.204Z,9.711638
2022-10-31T01:44:37.460Z,9.711660
2022-10-31T01:45:37.446Z,9.711620
2022-10-31T01:46:37.437Z,9.711652
2022-10-31T01:47:37.431Z,9.711635
2022-10-31T01:48:37.412Z,9.711685
2022-10-31T01:49:37.409Z,9.711644
2022-10-31T01:50:38.122Z,9.711620
2022-10-31T01:51:37.385Z,9.711550
2022-10-31T01:52:37.384Z,9.711666
2022-10-31T01:53:37.378Z,9.711566
2022-10-31T01:54:37.365Z,9.711704
2022-10-31T01:55:37.363Z,9.711640
2022-10-31T01:56:37.366Z,9.711825
2022-10-31T02:01:44.855Z,9.711204
2022-10-31T02:02:45.522Z,9.711204
2022-10-31T02:03:44.689Z,9.711204
2022-10-31T02:04:44.677Z,9.711204
2022-10-31T02:05:44.670Z,9.711204
2022-10-31T02:06:44.664Z,9.711204
2022-10-31T02:07:44.656Z,9.711320
2022-10-31T02:08:44.643Z,9.711357
2022-10-31T02:09:44.634Z,9.711110
2022-10-31T02:10:45.489Z,9.711228
2022-10-31T02:11:44.624Z,9.711259
2022-10-31T02:12:44.610Z,9.711306
2022-10-31T02:13:44.603Z,9.711439
2022-10-31T02:14:44.597Z,9.711662
2022-10-31T02:15:44.596Z,9.711639
2022-10-31T02:16:44.577Z,9.711636
2022-10-31T02:17:44.570Z,9.711693
2022-10-31T02:18:44.570Z,9.711701
2022-10-31T02:19:44.554Z,9.711650
2022-10-31T02:20:44.544Z,9.711545
2022-10-31T02:21:45.540Z,9.711582
2022-10-31T02:22:44.533Z,9.711563
2022-10-31T02:23:47.818Z,9.711709
2022-10-31T02:24:45.550Z,9.711626
2022-10-31T02:25:44.518Z,9.711624
2022-10-31T02:26:44.504Z,9.711650
2022-10-31T02:27:44.504Z,9.711612
2022-10-31T02:28:44.487Z,9.711600
2022-10-31T02:29:44.478Z,9.711555
2022-10-31T02:30:44.483Z,9.711523
2022-10-31T02:31:45.465Z,9.711525
2022-10-31T02:32:44.449Z,9.711555
2022-10-31T02:33:45.449Z,9.711601
2022-10-31T02:34:44.443Z,9.711648
2022-10-31T02:35:44.436Z,9.711576
2022-10-31T02:36:44.439Z,9.711528
2022-10-31T02:37:44.422Z,9.711603
2022-10-31T02:38:44.414Z,9.711609
2022-10-31T02:39:44.402Z,9.711588
2022-10-31T02:40:44.398Z,9.711584
2022-10-31T02:41:44.396Z,9.711655
2022-10-31T02:42:44.384Z,9.711685
2022-10-31T02:43:44.395Z,9.711670
2022-10-31T02:44:44.369Z,9.711557
2022-10-31T02:45:44.356Z,9.711596
2022-10-31T02:46:44.362Z,9.711606
2022-10-31T02:47:44.354Z,9.711621
2022-10-31T02:48:44.366Z,9.711620
2022-10-31T02:49:44.328Z,9.711632
2022-10-31T02:50:44.328Z,9.711698
2022-10-31T02:51:44.309Z,9.711642
2022-10-31T02:52:44.302Z,9.711647
2022-10-31T02:53:44.303Z,9.711629
2022-10-31T02:54:44.295Z,9.711608
2022-10-31T02:55:44.285Z,9.711614
2022-10-31T02:56:44.274Z,9.711635
2022-10-31T02:57:44.262Z,9.711663
2022-10-31T02:58:44.266Z,9.711635
2022-10-31T02:59:44.249Z,9.711644
2022-10-31T03:00:45.916Z,9.711602
2022-10-31T03:01:44.412Z,9.711617
2022-10-31T03:02:44.321Z,9.711615
2022-10-31T03:03:44.216Z,9.711591
2022-10-31T03:04:44.223Z,9.711633
2022-10-31T03:05:44.214Z,9.711605
2022-10-31T03:06:45.110Z,9.711643
2022-10-31T03:07:44.183Z,9.711670
2022-10-31T03:08:44.178Z,9.711647
2022-10-31T03:09:44.171Z,9.711705
2022-10-31T03:10:44.162Z,9.711761
2022-10-31T03:11:44.150Z,9.711578
2022-10-31T03:12:47.708Z,9.711742
2022-10-31T03:13:44.128Z,9.711754
2022-10-31T03:14:44.147Z,9.711854
2022-10-31T03:15:44.114Z,9.711889
2022-10-31T03:16:44.112Z,9.711881
2022-10-31T03:17:44.097Z,9.711978
2022-10-31T03:18:44.096Z,9.712035
2022-10-31T03:19:44.600Z,9.711869
2022-10-31T03:20:44.579Z,9.711815
2022-10-31T03:21:45.074Z,9.711946
2022-10-31T03:22:44.062Z,9.711879
2022-10-31T03:23:44.066Z,9.711954
2022-10-31T03:24:44.061Z,9.712171
2022-10-31T03:25:44.039Z,9.712208
2022-10-31T03:26:44.032Z,9.712597
2022-10-31T03:27:44.013Z,9.712475
2022-10-31T03:28:45.021Z,9.712509
2022-10-31T03:29:44.016Z,9.712433
2022-10-31T03:30:43.995Z,9.712225
2022-10-31T03:31:43.994Z,9.711969
2022-10-31T03:32:44.580Z,9.711765
2022-10-31T03:33:44.001Z,9.711518
2022-10-31T03:34:43.960Z,9.711477
2022-10-31T03:35:44.964Z,9.711359
2022-10-31T03:36:43.957Z,9.711566
2022-10-31T03:37:43.988Z,9.711633
2022-10-31T03:38:43.940Z,9.711628
2022-10-31T03:39:43.926Z,9.711657
2022-10-31T03:40:43.940Z,9.711670
2022-10-31T03:41:43.913Z,9.711637
2022-10-31T03:42:43.911Z,9.711577
2022-10-31T03:43:43.896Z,9.711545
2022-10-31T03:44:43.888Z,9.711563
2022-10-31T03:45:43.928Z,9.711589
2022-10-31T03:46:43.875Z,9.711621
2022-10-31T03:47:43.860Z,9.711629
2022-10-31T03:48:43.850Z,9.711640
2022-10-31T03:49:43.852Z,9.711637
2022-10-31T03:50:43.843Z,9.711579
2022-10-31T03:51:43.828Z,9.711625
2022-10-31T03:52:43.852Z,9.711649
2022-10-31T03:53:43.848Z,9.711617
2022-10-31T03:54:43.814Z,9.711599
2022-10-31T03:55:43.793Z,9.711596
2022-10-31T03:56:43.785Z,9.711602
2022-10-31T03:57:43.782Z,9.711633
2022-10-31T03:58:44.511Z,9.711627
2022-10-31T03:59:43.769Z,9.711612
2022-10-31T04:00:43.761Z,9.711637
2022-10-31T04:01:43.858Z,9.711603
2022-10-31T04:02:43.864Z,9.711583
2022-10-31T04:03:43.728Z,9.711577
2022-10-31T04:04:43.721Z,9.711587
2022-10-31T04:05:43.722Z,9.711611
2022-10-31T04:06:43.714Z,9.711617
2022-10-31T04:07:43.693Z,9.711572
2022-10-31T04:08:43.689Z,9.711567
2022-10-31T04:09:43.697Z,9.711586
2022-10-31T04:10:43.689Z,9.711659
2022-10-31T04:11:43.721Z,9.711518
2022-10-31T04:12:43.657Z,9.711571
2022-10-31T04:13:43.656Z,9.711647
2022-10-31T04:14:43.647Z,9.711626
2022-10-31T04:15:43.643Z,9.711718
2022-10-31T04:16:43.641Z,9.711580
2022-10-31T04:17:43.627Z,9.711628
2022-10-31T04:18:43.607Z,9.711587
2022-10-31T04:19:44.597Z,9.711821
2022-10-31T04:20:43.591Z,9.711638
2022-10-31T04:21:44.590Z,9.711669
2022-10-31T04:22:43.574Z,9.711802
2022-10-31T04:23:44.598Z,9.711854
2022-10-31T04:24:43.570Z,9.711490
2022-10-31T04:25:43.550Z,9.711631
2022-10-31T04:26:43.555Z,9.711459
2022-10-31T04:27:43.532Z,9.711555
2022-10-31T04:28:43.554Z,9.711419
2022-10-31T04:29:45.643Z,9.711478
2022-10-31T04:30:44.521Z,9.711481
2022-10-31T04:31:43.516Z,9.711672
2022-10-31T04:32:44.104Z,9.711498
2022-10-31T04:33:43.495Z,9.711527
2022-10-31T04:34:44.477Z,9.711474
2022-10-31T04:35:43.481Z,9.711462
2022-10-31T04:36:43.465Z,9.711545
2022-10-31T04:37:43.458Z,9.711556
2022-10-31T04:38:43.449Z,9.711669
2022-10-31T04:39:43.445Z,9.711776
2022-10-31T04:40:43.443Z,9.711775
2022-10-31T04:41:43.425Z,9.711704
2022-10-31T04:42:43.414Z,9.711715
2022-10-31T04:43:43.411Z,9.711680
2022-10-31T04:44:43.405Z,9.711573
2022-10-31T04:45:43.412Z,9.711640
2022-10-31T04:46:43.388Z,9.711608
2022-10-31T04:47:43.428Z,9.711637
2022-10-31T04:48:44.095Z,9.711684
2022-10-31T04:49:43.364Z,9.711778
2022-10-31T04:50:43.369Z,9.711618
2022-10-31T04:51:43.350Z,9.711506
2022-10-31T04:52:43.337Z,9.711555
2022-10-31T04:53:43.329Z,9.711531
2022-10-31T04:54:43.326Z,9.711522
2022-10-31T04:55:43.331Z,9.711673
2022-10-31T04:56:43.316Z,9.711572
2022-10-31T04:57:43.302Z,9.711590
2022-10-31T04:58:43.291Z,9.711616
2022-10-31T04:59:43.283Z,9.711560
2022-10-31T05:00:43.326Z,9.711571
2022-10-31T05:01:43.348Z,9.711598
2022-10-31T05:02:44.528Z,9.711641
2022-10-31T05:03:44.254Z,9.711528
2022-10-31T05:04:43.254Z,9.711556
2022-10-31T05:05:43.239Z,9.711617
2022-10-31T05:06:43.239Z,9.711650
2022-10-31T05:07:43.223Z,9.711643
2022-10-31T05:08:43.213Z,9.711679
2022-10-31T05:09:43.201Z,9.711693
2022-10-31T05:10:43.193Z,9.711687
2022-10-31T05:11:43.195Z,9.711744
2022-10-31T05:12:43.192Z,9.711646
2022-10-31T05:13:43.171Z,9.711548
2022-10-31T05:14:46.063Z,9.711555
2022-10-31T05:15:44.164Z,9.711622
2022-10-31T05:16:43.208Z,9.711725
2022-10-31T05:17:43.139Z,9.711776
2022-10-31T05:18:43.140Z,9.711784
2022-10-31T05:19:44.108Z,9.711725
2022-10-31T05:20:43.120Z,9.711649
2022-10-31T05:21:43.124Z,9.711588
2022-10-31T05:22:43.107Z,9.711579
2022-10-31T05:23:45.941Z,9.711782
2022-10-31T05:24:45.141Z,9.711842
2022-10-31T05:25:43.094Z,9.711937
2022-10-31T05:26:43.082Z,9.711809
2022-10-31T05:27:43.070Z,9.711828
2022-10-31T05:28:43.064Z,9.711701
2022-10-31T05:29:43.055Z,9.711823
2022-10-31T05:30:43.038Z,9.711872
2022-10-31T05:31:43.030Z,9.711934
2022-10-31T05:32:43.022Z,9.712120
2022-10-31T05:33:43.028Z,9.712016
2022-10-31T05:34:43.616Z,9.711856
2022-10-31T05:35:43.001Z,9.711919
2022-10-31T05:36:42.997Z,9.711892
2022-10-31T05:37:42.982Z,9.711797
2022-10-31T05:38:42.973Z,9.711987
2022-10-31T05:39:44.610Z,9.711846
2022-10-31T05:40:42.971Z,9.711855
2022-10-31T05:41:43.528Z,9.711856
2022-10-31T05:42:42.979Z,9.711903
2022-10-31T05:43:42.955Z,9.711870
2022-10-31T05:44:42.937Z,9.711828
2022-10-31T05:45:42.920Z,9.711832
2022-10-31T05:46:43.908Z,9.711810
2022-10-31T05:47:44.533Z,9.711814
2022-10-31T05:48:42.900Z,9.711922
2022-10-31T05:49:42.903Z,9.711629
2022-10-31T05:50:42.894Z,9.711667
2022-10-31T05:51:42.889Z,9.711810
2022-10-31T05:52:43.597Z,9.711945
2022-10-31T05:53:43.859Z,9.711992
2022-10-31T05:54:42.868Z,9.711792
2022-10-31T05:55:42.849Z,9.711927
2022-10-31T05:56:42.852Z,9.711891
2022-10-31T05:57:42.831Z,9.711841
2022-10-31T05:58:42.823Z,9.711991
2022-10-31T05:59:43.841Z,9.711966
2022-10-31T06:00:42.814Z,9.712064
2022-10-31T06:01:42.891Z,9.712213
2022-10-31T06:02:42.850Z,9.712070
2022-10-31T06:03:42.817Z,9.711987
2022-10-31T06:04:42.820Z,9.712153
2022-10-31T06:05:43.539Z,9.712005
2022-10-31T06:06:42.765Z,9.711875
2022-10-31T06:07:42.765Z,9.711825
2022-10-31T06:08:45.057Z,9.711843
2022-10-31T06:09:46.611Z,9.711782
2022-10-31T06:10:42.753Z,9.711713
2022-10-31T06:11:42.718Z,9.711699
2022-10-31T06:12:42.711Z,9.711733
2022-10-31T06:13:43.540Z,9.711689
2022-10-31T06:14:42.702Z,9.711765
2022-10-31T06:15:42.709Z,9.711791
2022-10-31T06:16:44.652Z,9.711811
2022-10-31T06:17:47.544Z,9.711733
2022-10-31T06:18:42.669Z,9.711662
2022-10-31T06:19:42.778Z,9.711723
2022-10-31T06:20:45.564Z,9.711679
2022-10-31T21:48:46.648Z,9.712304
2022-10-31T21:49:46.623Z,9.711774
2022-10-31T21:50:46.620Z,9.711526
2022-10-31T21:51:46.612Z,9.711473
2022-10-31T21:52:46.600Z,9.711552
2022-10-31T21:53:46.603Z,9.711482
2022-10-31T21:54:48.567Z,9.711508
2022-10-31T21:55:46.579Z,9.711495
2022-10-31T21:56:46.566Z,9.711739
2022-10-31T21:57:47.564Z,9.711738
2022-10-31T21:58:46.591Z,9.711816
2022-10-31T21:59:46.552Z,9.711691
2022-10-31T22:00:46.598Z,9.711583
2022-10-31T22:01:46.683Z,9.711613
2022-10-31T22:02:46.576Z,9.711735
2022-10-31T22:03:46.519Z,9.711699
2022-10-31T22:04:46.562Z,9.711720
2022-10-31T22:05:46.523Z,9.711752
2022-10-31T22:06:48.092Z,9.711702
2022-10-31T22:07:50.156Z,9.711701
2022-10-31T22:08:46.490Z,9.711724
2022-10-31T22:09:48.578Z,9.711750
2022-10-31T22:10:48.099Z,9.711672
2022-10-31T22:11:47.086Z,9.711696
2022-10-31T22:12:52.635Z,9.711689
2022-10-31T22:13:46.457Z,9.711690
2022-10-31T22:14:46.467Z,9.711696
2022-10-31T22:15:50.365Z,9.711696
2022-10-31T22:16:48.151Z,9.711716
2022-10-31T22:17:46.418Z,9.711683
2022-10-31T22:18:46.400Z,9.711671
2022-10-31T22:19:46.397Z,9.711632
2022-10-31T22:20:46.393Z,9.711651
2022-10-31T22:21:47.088Z,9.711683
2022-10-31T22:22:46.370Z,9.711672
2022-10-31T22:25:55.609Z,9.711640
2022-10-31T22:26:58.475Z,9.711637
2022-10-31T22:27:58.627Z,9.711624
2022-10-31T22:28:55.610Z,9.711629
2022-10-31T22:29:59.393Z,9.711675
2022-10-31T22:30:55.558Z,9.711713
2022-10-31T22:31:59.633Z,9.711695
2022-10-31T22:32:56.522Z,9.711606
2022-10-31T22:33:56.561Z,9.711616
2022-10-31T22:34:55.518Z,9.711637
2022-10-31T22:35:55.546Z,9.711594
2022-10-31T22:36:55.505Z,9.711741
2022-10-31T22:37:55.492Z,9.711642
2022-10-31T22:38:55.487Z,9.711599
2022-10-31T22:39:55.466Z,9.711618
2022-10-31T22:40:58.445Z,9.711560
2022-10-31T22:41:55.470Z,9.711571
2022-10-31T22:42:55.454Z,9.711552
2022-10-31T22:43:55.453Z,9.711546
2022-10-31T22:44:55.440Z,9.711557
2022-10-31T22:45:55.432Z,9.711515
2022-10-31T22:46:55.435Z,9.711558
2022-10-31T22:47:55.431Z,9.711634
2022-10-31T22:48:55.418Z,9.711652
2022-10-31T22:49:55.404Z,9.711580
2022-10-31T22:50:56.386Z,9.711513
2022-10-31T22:51:55.395Z,9.711501
2022-10-31T22:52:55.375Z,9.711454
2022-10-31T22:53:55.378Z,9.711535
2022-10-31T22:54:58.388Z,9.711572
2022-10-31T22:55:56.354Z,9.711368
2022-10-31T22:56:55.355Z,9.711530
2022-10-31T22:57:55.345Z,9.711534
2022-10-31T22:58:56.338Z,9.711473
2022-10-31T22:59:55.335Z,9.711602
2022-10-31T23:00:55.911Z,9.711453
2022-10-31T23:01:55.478Z,9.711484
2022-10-31T23:02:55.881Z,9.711513
2022-10-31T23:03:56.006Z,9.711395
2022-10-31T23:04:55.284Z,9.711404
2022-10-31T23:05:55.278Z,9.711549
2022-10-31T23:06:55.266Z,9.711555
2022-10-31T23:07:55.274Z,9.711624
2022-10-31T23:08:55.254Z,9.711430
2022-10-31T23:09:55.248Z,9.711400
2022-10-31T23:10:55.966Z,9.711569
2022-10-31T23:11:55.229Z,9.711522
2022-10-31T23:12:55.235Z,9.711602
2022-10-31T23:13:55.223Z,9.711459
2022-10-31T23:14:55.207Z,9.711629
2022-10-31T23:15:55.215Z,9.711809
2022-10-31T23:16:55.190Z,9.711617
2022-10-31T23:17:55.195Z,9.711612
2022-10-31T23:18:55.180Z,9.711479
2022-10-31T23:19:55.888Z,9.711642
2022-10-31T23:20:55.156Z,9.711791
2022-10-31T23:21:55.386Z,9.711805
2022-10-31T23:22:55.152Z,9.711946
2022-10-31T23:23:55.881Z,9.711991
2022-10-31T23:24:55.130Z,9.711937
2022-10-31T23:25:55.119Z,9.711799
2022-10-31T23:26:55.115Z,9.711894
2022-10-31T23:27:55.108Z,9.711928
2022-10-31T23:28:55.161Z,9.711772
2022-10-31T23:29:55.090Z,9.711825
2022-10-31T23:30:55.888Z,9.711979
2022-10-31T23:31:55.077Z,9.711782
2022-10-31T23:32:55.069Z,9.711865
2022-10-31T23:33:55.065Z,9.711740
2022-10-31T23:34:55.056Z,9.711764
2022-10-31T23:35:55.045Z,9.711618
2022-10-31T23:36:55.087Z,9.711923
2022-10-31T23:37:56.033Z,9.711923
2022-10-31T23:38:55.022Z,9.711874
2022-10-31T23:39:55.024Z,9.711737
2022-10-31T23:40:55.011Z,9.711809
2022-10-31T23:41:55.000Z,9.711733
2022-10-31T23:42:54.989Z,9.711621
2022-10-31T23:43:56.893Z,9.711536
2022-10-31T23:44:54.999Z,9.711517
2022-10-31T23:45:54.964Z,9.711414
2022-10-31T23:46:54.952Z,9.711376
2022-10-31T23:47:54.964Z,9.711479
2022-10-31T23:48:54.939Z,9.711636
2022-10-31T23:49:54.948Z,9.711749
2022-10-31T23:50:54.925Z,9.711714
2022-10-31T23:51:54.912Z,9.711691
2022-10-31T23:52:54.908Z,9.711701
2022-10-31T23:53:59.478Z,9.711729
2022-10-31T23:54:54.974Z,9.711744
2022-10-31T23:55:54.893Z,9.711812
2022-10-31T23:56:54.884Z,9.711810
2022-10-31T23:57:54.874Z,9.711803
2022-10-31T23:58:54.874Z,9.711885
2022-10-31T23:59:54.865Z,9.712020
